Time;durP1;ratioP1;P1;durP2;ratioP2;P2;SDS_P1;SDS_P2;PMS_P1;PMS_P2;Temp;Humidity;BMP_temperature;BMP_pressure;BME280_temperature;BME280_humidity;BME280_pressure;Samples;Min_cycle;Max_cycle;Signal;HPM_P1;HPM_P2
2022/09/10 00:02:15;;;;;;;;;4.25;3.00;;;;;18.35;58.61;100807.63;5074438;27;71268;-41
2022/09/10 00:04:41;;;;;;;;;4.25;3.00;;;;;18.36;58.67;100800.53;5073729;27;45303;-40
2022/09/10 00:07:06;;;;;;;;;5.00;2.00;;;;;18.37;58.85;100807.56;5079225;28;62509;-42
2022/09/10 00:09:31;;;;;;;;;3.25;3.00;;;;;18.36;58.68;100803.19;5063190;28;45555;-41
2022/09/10 00:11:57;;;;;;;;;2.75;1.50;;;;;18.38;58.62;100807.47;5075775;27;46125;-42
2022/09/10 00:14:23;;;;;;;;;2.25;2.25;;;;;18.37;58.85;100811.03;5052435;27;46269;-44
2022/09/10 00:16:48;;;;;;;;;3.25;1.75;;;;;18.38;58.63;100811.91;5071273;27;62985;-45
2022/09/10 00:19:14;;;;;;;;;3.50;2.50;;;;;18.35;58.74;100807.63;5063584;27;45501;-43
2022/09/10 00:21:40;;;;;;;;;4.50;2.50;;;;;18.33;58.74;100812.19;5056285;28;46945;-44
2022/09/10 00:24:05;;;;;;;;;3.25;3.00;;;;;18.34;58.69;100808.59;5077328;27;66973;-42
2022/09/10 00:26:37;;;;;;;;;4.00;2.00;;;;;18.31;58.64;100808.75;5049578;28;45251;-43
2022/09/10 00:29:03;;;;;;;;;2.00;1.75;;;;;18.30;58.78;100804.41;5050065;27;45600;-42
2022/09/10 00:31:29;;;;;;;;;3.50;2.00;;;;;18.28;59.00;100797.50;5047363;28;45347;-45
2022/09/10 00:33:55;;;;;;;;;2.00;1.25;;;;;18.27;58.87;100799.28;5050364;28;45340;-43
2022/09/10 00:36:31;;;;;;;;;6.25;2.00;;;;;18.22;58.82;100790.75;5079027;27;45398;-42
2022/09/10 00:39:01;;;;;;;;;2.00;1.00;;;;;18.18;58.83;100789.22;5075134;27;45249;-44
2022/09/10 00:41:27;;;;;;;;;5.50;2.00;;;;;18.15;59.14;100790.25;5060519;28;46299;-46
2022/09/10 00:43:56;;;;;;;;;3.50;2.75;;;;;18.15;59.20;100792.91;5053763;28;45768;-42
2022/09/10 00:46:31;;;;;;;;;7.25;2.00;;;;;18.15;59.34;100798.22;5079121;27;45460;-43
2022/09/10 00:49:01;;;;;;;;;6.75;2.00;;;;;18.15;59.10;100784.09;5078627;27;45239;-43
2022/09/10 00:51:29;;;;;;;;;5.00;1.25;;;;;18.16;59.19;100789.31;5053092;28;46905;-45
2022/09/10 00:53:55;;;;;;;;;1.50;1.25;;;;;18.13;59.30;100784.22;5058190;27;45960;-41
2022/09/10 00:56:21;;;;;;;;;3.75;1.00;;;;;18.12;59.29;100781.63;5060918;27;45412;-41
2022/09/10 00:58:47;;;;;;;;;2.00;2.00;;;;;18.11;59.52;100783.41;5077280;27;45536;-41
2022/09/10 01:01:12;;;;;;;;;2.00;2.00;;;;;18.09;59.22;100790.59;5057326;27;46192;-41
2022/09/10 01:03:39;;;;;;;;;2.00;1.25;;;;;18.07;59.24;100779.25;5051106;27;45434;-41
2022/09/10 01:06:05;;;;;;;;;3.75;3.00;;;;;18.05;59.16;100781.13;5041055;28;45406;-42
2022/09/10 01:08:30;;;;;;;;;3.00;1.50;;;;;18.05;59.08;100777.66;5061925;28;45475;-44
2022/09/10 01:11:15;;;;;;;;;4.00;1.25;;;;;18.02;59.08;100782.19;5080041;27;58096;-41
2022/09/10 01:13:49;;;;;;;;;2.50;2.00;;;;;18.01;59.18;100780.47;5079455;27;45531;-44
2022/09/10 01:16:28;;;;;;;;;4.25;1.00;;;;;18.02;59.59;100781.31;5080100;27;45275;-41
2022/09/10 01:19:19;;;;;;;;;2.00;1.50;;;;;18.04;59.31;100779.41;5085898;27;45249;-44
2022/09/10 01:22:19;;;;;;;;;2.25;2.00;;;;;18.06;59.46;100782.84;5052560;28;45336;-45
2022/09/10 01:25:02;;;;;;;;;4.00;1.00;;;;;18.08;59.18;100786.25;5077215;27;45711;-43
2022/09/10 01:27:51;;;;;;;;;2.25;1.00;;;;;18.06;59.48;100782.84;5075322;28;45437;-41
2022/09/10 01:30:20;;;;;;;;;2.00;2.00;;;;;18.07;59.28;100783.69;5043199;28;45440;-42
2022/09/10 01:33:07;;;;;;;;;2.50;1.00;;;;;18.06;59.40;100796.09;5047803;28;46001;-41
2022/09/10 01:35:43;;;;;;;;;4.00;2.25;;;;;18.03;59.45;100794.47;5052656;27;45388;-40
2022/09/10 01:38:16;;;;;;;;;3.75;2.00;;;;;18.03;59.48;100801.56;5075364;27;45640;-42
2022/09/10 01:40:42;;;;;;;;;2.00;2.00;;;;;18.02;59.77;100792.78;5053268;28;45546;-43
2022/09/10 01:43:08;;;;;;;;;4.00;1.75;;;;;18.05;59.40;100798.81;5057047;27;51350;-43
2022/09/10 01:45:49;;;;;;;;;2.75;2.00;;;;;18.02;59.42;100798.06;5073834;27;45336;-42
2022/09/10 01:48:22;;;;;;;;;2.00;1.50;;;;;18.01;59.56;100795.50;5078577;27;45267;-43
2022/09/10 01:51:08;;;;;;;;;2.25;2.00;;;;;18.02;59.56;100791.91;5077799;27;45424;-41
2022/09/10 01:54:13;;;;;;;;;2.25;2.00;;;;;18.02;59.59;100790.13;5061612;28;46416;-42
2022/09/10 01:57:02;;;;;;;;;3.00;2.00;;;;;18.06;59.59;100800.50;5069823;27;45804;-41
2022/09/10 01:59:33;;;;;;;;;2.75;2.00;;;;;18.13;59.55;100804.50;5069044;27;45272;-43
2022/09/10 02:02:16;;;;;;;;;1.75;1.00;;;;;18.14;59.51;100800.94;5064605;27;45567;-40
2022/09/10 02:04:42;;;;;;;;;4.75;3.00;;;;;18.11;59.55;100796.66;5065228;27;45396;-41
2022/09/10 02:07:09;;;;;;;;;5.25;3.00;;;;;18.10;59.44;100808.22;5075659;27;70411;-40
2022/09/10 02:09:35;;;;;;;;;4.00;3.00;;;;;18.11;59.44;100796.66;5044157;27;57410;-43
2022/09/10 02:12:01;;;;;;;;;2.00;2.00;;;;;18.13;59.71;100800.09;5076917;27;73540;-43
2022/09/10 02:14:26;;;;;;;;;3.00;1.00;;;;;18.12;59.91;100792.22;5067560;28;45382;-40
2022/09/10 02:16:59;;;;;;;;;1.00;1.00;;;;;18.14;59.58;100799.13;5072517;27;45289;-41
2022/09/10 02:19:25;;;;;;;;;4.00;3.00;;;;;18.14;59.44;100795.66;5077814;27;45405;-41
2022/09/10 02:21:52;;;;;;;;;2.75;2.75;;;;;18.13;59.52;100793.91;5072496;27;45418;-42
2022/09/10 02:24:17;;;;;;;;;2.75;2.00;;;;;18.12;59.36;100798.38;5071510;28;46417;-41
2022/09/10 02:26:43;;;;;;;;;2.00;2.00;;;;;18.14;59.57;100793.00;5061420;28;45424;-40
2022/09/10 02:29:10;;;;;;;;;1.75;1.75;;;;;18.17;59.51;100795.47;5073776;28;45412;-41
2022/09/10 02:31:35;;;;;;;;;4.00;1.75;;;;;18.16;59.50;100799.06;5069792;28;45608;-41
2022/09/10 02:34:03;;;;;;;;;5.00;2.00;;;;;18.14;59.32;100795.66;5059544;28;71015;-41
2022/09/10 02:36:30;;;;;;;;;2.75;0.00;;;;;18.12;59.44;100794.88;5072320;28;45300;-41
2022/09/10 02:38:57;;;;;;;;;5.00;2.00;;;;;18.09;59.60;100797.69;5072164;27;45482;-43
2022/09/10 02:41:24;;;;;;;;;1.75;1.75;;;;;18.07;59.68;100800.44;5066546;27;45369;-41
2022/09/10 02:43:49;;;;;;;;;3.00;2.50;;;;;18.06;59.40;100798.75;5076535;27;46242;-42
2022/09/10 02:46:15;;;;;;;;;5.00;2.00;;;;;18.05;59.62;100796.19;5069941;28;45305;-43
2022/09/10 02:48:41;;;;;;;;;3.50;1.00;;;;;18.05;59.41;100804.97;5074054;27;45293;-41
2022/09/10 02:51:07;;;;;;;;;3.00;2.00;;;;;18.05;59.67;100801.47;5060674;27;65336;-43
2022/09/10 02:53:32;;;;;;;;;4.00;2.50;;;;;18.02;59.72;100808.66;5073164;27;75465;-41
2022/09/10 02:55:57;;;;;;;;;4.00;2.00;;;;;18.00;59.52;100813.16;5070475;27;45399;-40
2022/09/10 02:58:23;;;;;;;;;4.00;2.00;;;;;17.97;59.73;100807.19;5077073;27;45195;-40
2022/09/10 03:00:48;;;;;;;;;2.75;2.75;;;;;17.93;59.79;100798.56;5069096;27;55172;-40
2022/09/10 03:03:13;;;;;;;;;2.75;2.00;;;;;17.95;59.74;100811.72;5074180;27;65317;-41
2022/09/10 03:05:40;;;;;;;;;4.75;1.00;;;;;17.94;59.76;100802.09;5073599;27;73332;-40
2022/09/10 03:08:07;;;;;;;;;4.50;2.00;;;;;17.94;59.93;100802.09;5065919;27;45862;-40
2022/09/10 03:10:33;;;;;;;;;4.00;2.00;;;;;17.94;59.92;100805.59;5069220;28;45356;-40
2022/09/10 03:12:59;;;;;;;;;5.75;1.50;;;;;17.97;59.75;100816.00;5080744;27;45491;-40
2022/09/10 03:15:24;;;;;;;;;2.00;2.00;;;;;17.97;59.84;100813.38;5081535;27;45489;-40
2022/09/10 03:17:50;;;;;;;;;1.75;1.75;;;;;17.97;60.04;100813.38;5080876;27;58854;-40
2022/09/10 03:20:17;;;;;;;;;1.00;1.00;;;;;18.00;59.94;100809.66;5077839;27;45294;-43
2022/09/10 03:22:42;;;;;;;;;2.75;1.00;;;;;18.00;59.64;100807.88;5066686;27;46184;-42
2022/09/10 03:25:08;;;;;;;;;3.75;1.75;;;;;17.98;59.80;100807.09;5079618;27;45485;-42
2022/09/10 03:27:33;;;;;;;;;2.00;2.00;;;;;17.96;59.87;100802.84;5080106;27;45438;-42
2022/09/10 03:29:59;;;;;;;;;2.00;2.00;;;;;17.95;59.53;100801.13;5075266;27;45404;-43
2022/09/10 03:32:24;;;;;;;;;3.50;1.75;;;;;17.99;59.97;100815.94;5075647;27;46280;-42
2022/09/10 03:34:50;;;;;;;;;5.25;1.50;;;;;18.00;60.02;100810.50;5078702;27;45392;-44
2022/09/10 03:37:16;;;;;;;;;5.75;2.00;;;;;17.99;59.71;100813.28;5051512;27;45534;-43
2022/09/10 03:39:42;;;;;;;;;5.50;2.00;;;;;17.98;59.74;100804.47;5053414;28;45551;-41
2022/09/10 03:42:07;;;;;;;;;4.50;2.00;;;;;17.98;59.91;100806.25;5074876;27;45342;-41
2022/09/10 03:44:33;;;;;;;;;6.00;1.50;;;;;17.98;59.89;100814.22;5074661;27;46944;-42
2022/09/10 03:46:59;;;;;;;;;4.00;2.00;;;;;17.95;60.02;100804.63;5079905;27;65249;-41
2022/09/10 03:49:25;;;;;;;;;3.00;0.25;;;;;18.00;59.93;100815.81;5078912;28;45330;-41
2022/09/10 03:51:50;;;;;;;;;4.00;1.00;;;;;18.01;59.76;100814.88;5081852;27;45899;-40
2022/09/10 03:54:15;;;;;;;;;3.00;1.00;;;;;18.02;59.94;100811.31;5078457;28;67431;-41
2022/09/10 03:56:41;;;;;;;;;1.25;1.25;;;;;18.04;59.47;100805.91;5077149;27;61166;-43
2022/09/10 03:59:06;;;;;;;;;3.50;2.00;;;;;18.07;59.78;100818.97;5080392;27;45478;-43
2022/09/10 04:01:32;;;;;;;;;2.50;1.00;;;;;18.08;59.56;100818.03;5071039;27;47186;-43
2022/09/10 04:03:57;;;;;;;;;2.00;2.00;;;;;18.07;59.62;100815.47;5070301;27;45560;-40
2022/09/10 04:06:22;;;;;;;;;3.00;2.00;;;;;18.06;59.88;100817.28;5075560;27;45357;-41
2022/09/10 04:08:51;;;;;;;;;4.00;2.75;;;;;18.04;59.69;100808.53;5076746;27;45378;-45
2022/09/10 04:11:17;;;;;;;;;3.75;1.50;;;;;18.03;59.86;100801.56;5058040;28;46715;-42
2022/09/10 04:13:44;;;;;;;;;1.50;1.25;;;;;18.02;59.69;100800.72;5074745;27;45401;-42
2022/09/10 04:16:10;;;;;;;;;3.50;1.75;;;;;18.01;59.85;100814.88;5079499;27;45284;-42
2022/09/10 04:18:36;;;;;;;;;2.25;1.25;;;;;17.98;59.55;100807.09;5048118;28;45560;-42
2022/09/10 04:21:01;;;;;;;;;2.50;1.00;;;;;17.98;59.63;100807.09;5079096;27;45571;-43
2022/09/10 04:23:28;;;;;;;;;2.00;1.00;;;;;17.97;59.88;100810.72;5069774;28;73353;-43
2022/09/10 04:25:53;;;;;;;;;2.25;2.00;;;;;17.97;59.84;100813.38;5081261;27;45271;-42
2022/09/10 04:28:19;;;;;;;;;4.25;1.25;;;;;17.99;59.87;100814.13;5075085;27;45218;-42
2022/09/10 04:30:44;;;;;;;;;1.50;1.25;;;;;18.01;59.37;100814.88;5078657;27;66085;-42
2022/09/10 04:33:10;;;;;;;;;3.00;1.00;;;;;18.02;59.92;100819.25;5077503;27;71228;-41
2022/09/10 04:35:36;;;;;;;;;5.00;2.00;;;;;18.02;59.80;100813.97;5070515;27;45364;-41
2022/09/10 04:38:01;;;;;;;;;1.75;1.00;;;;;18.03;59.86;100815.66;5077022;27;45370;-42
2022/09/10 04:40:27;;;;;;;;;4.50;1.75;;;;;18.05;59.87;100814.72;5061612;27;63460;-41
2022/09/10 04:42:52;;;;;;;;;3.25;1.00;;;;;18.05;59.73;100812.91;5079185;27;45277;-43
2022/09/10 04:45:18;;;;;;;;;3.25;2.00;;;;;18.06;59.47;100816.41;5072553;27;61002;-42
2022/09/10 04:47:45;;;;;;;;;2.00;1.50;;;;;18.02;59.80;100813.09;5062372;28;45717;-43
2022/09/10 04:50:11;;;;;;;;;2.00;2.00;;;;;18.02;59.80;100813.09;5078237;27;46236;-41
2022/09/10 04:52:36;;;;;;;;;1.50;1.50;;;;;18.01;60.01;100806.94;5064118;27;45210;-43
2022/09/10 04:55:02;;;;;;;;;2.00;1.25;;;;;18.03;59.69;100820.94;5062381;28;45335;-42
2022/09/10 04:57:27;;;;;;;;;3.50;1.00;;;;;18.05;59.64;100818.22;5080070;27;45209;-42
2022/09/10 04:59:53;;;;;;;;;3.50;1.00;;;;;18.03;59.70;100820.09;5074941;27;45389;-44
2022/09/10 05:02:18;;;;;;;;;3.50;2.00;;;;;18.02;59.79;100828.97;5076019;27;73133;-44
2022/09/10 05:04:44;;;;;;;;;4.50;3.00;;;;;17.99;60.05;100829.16;5074007;27;45402;-43
2022/09/10 05:07:09;;;;;;;;;3.00;1.00;;;;;17.99;59.76;100831.81;5066547;28;65364;-42
2022/09/10 05:09:34;;;;;;;;;4.25;2.00;;;;;18.01;60.13;100837.88;5080102;28;45375;-43
2022/09/10 05:12:01;;;;;;;;;3.50;2.00;;;;;18.05;59.85;100842.03;5066720;28;45222;-43
2022/09/10 05:14:28;;;;;;;;;4.00;1.00;;;;;18.06;59.82;100843.75;5068245;28;45345;-42
2022/09/10 05:16:54;;;;;;;;;1.75;1.75;;;;;18.09;59.73;100848.03;5067302;27;45320;-42
2022/09/10 05:19:19;;;;;;;;;4.50;2.00;;;;;18.08;59.63;100855.13;5080005;27;46841;-44
2022/09/10 05:21:44;;;;;;;;;3.75;1.00;;;;;18.10;59.68;100855.03;5074952;27;45380;-46
2022/09/10 05:24:10;;;;;;;;;2.75;1.00;;;;;18.09;59.57;100850.66;5062260;28;45272;-44
2022/09/10 05:26:36;;;;;;;;;4.25;1.25;;;;;18.09;59.65;100850.66;5066212;27;45288;-48
2022/09/10 05:29:01;;;;;;;;;1.00;1.00;;;;;18.11;59.68;100856.72;5077736;28;69500;-45
2022/09/10 05:31:26;;;;;;;;;3.75;1.00;;;;;18.14;59.57;100856.56;5079312;28;56849;-47
2022/09/10 05:33:53;;;;;;;;;5.50;2.00;;;;;18.13;59.55;100855.72;5080110;27;45403;-46
2022/09/10 05:36:19;;;;;;;;;1.75;1.75;;;;;18.14;59.77;100860.06;5079353;27;45305;-47
2022/09/10 05:38:45;;;;;;;;;2.25;2.00;;;;;18.13;59.39;100861.00;5068691;27;46051;-46
2022/09/10 05:41:10;;;;;;;;;2.25;1.00;;;;;18.12;59.79;100861.94;5049824;28;45264;-41
2022/09/10 05:43:36;;;;;;;;;2.00;1.00;;;;;18.12;59.89;100869.03;5079058;27;45482;-42
2022/09/10 05:46:02;;;;;;;;;4.50;1.75;;;;;18.10;59.77;100873.56;5078264;27;45463;-41
2022/09/10 05:48:27;;;;;;;;;2.50;1.00;;;;;18.13;59.60;100873.38;5077212;27;45373;-43
2022/09/10 05:50:53;;;;;;;;;2.50;1.50;;;;;18.15;59.58;100872.38;5078223;27;66991;-41
2022/09/10 05:53:18;;;;;;;;;3.00;1.00;;;;;18.17;59.81;100875.78;5078790;27;45389;-43
2022/09/10 05:55:44;;;;;;;;;2.00;2.00;;;;;18.21;59.63;100885.25;5076789;27;59906;-45
2022/09/10 05:58:12;;;;;;;;;1.00;1.00;;;;;18.22;59.57;100880.84;5079026;27;45446;-41
2022/09/10 06:00:37;;;;;;;;;3.25;2.00;;;;;18.24;59.67;100888.66;5077037;27;45173;-41
2022/09/10 06:03:04;;;;;;;;;2.00;0.50;;;;;18.24;59.38;100880.72;5076601;27;45406;-43
2022/09/10 06:05:29;;;;;;;;;3.25;2.00;;;;;18.23;59.58;100893.13;5074827;27;45228;-41
2022/09/10 06:07:55;;;;;;;;;4.00;2.25;;;;;18.25;59.55;100893.03;5059405;28;75699;-41
2022/09/10 06:10:21;;;;;;;;;4.00;1.75;;;;;18.26;59.54;100892.09;5079279;27;45756;-43
2022/09/10 06:12:48;;;;;;;;;2.75;1.00;;;;;18.23;59.33;100895.75;5055870;27;45449;-42
2022/09/10 06:15:14;;;;;;;;;7.50;3.00;;;;;18.24;59.48;100897.50;5058731;27;45418;-43
2022/09/10 06:17:39;;;;;;;;;3.50;3.00;;;;;18.26;59.63;100902.72;5056502;27;45395;-40
2022/09/10 06:20:05;;;;;;;;;6.75;2.50;;;;;18.29;59.36;100911.34;5074793;27;70845;-44
2022/09/10 06:22:30;;;;;;;;;3.25;1.75;;;;;18.29;59.35;100913.09;5071998;27;45443;-44
2022/09/10 06:24:56;;;;;;;;;5.00;2.00;;;;;18.30;59.63;100909.53;5050607;27;46226;-43
2022/09/10 06:27:24;;;;;;;;;7.25;4.00;;;;;18.32;59.57;100915.59;5074253;27;45242;-44
2022/09/10 06:29:50;;;;;;;;;1.00;1.00;;;;;18.30;59.49;100915.66;5075061;27;45790;-43
2022/09/10 06:32:15;;;;;;;;;1.50;1.50;;;;;18.27;59.47;100904.41;5081491;28;45217;-43
2022/09/10 06:34:41;;;;;;;;;4.25;2.00;;;;;18.26;59.49;100910.66;5079561;27;69499;-42
2022/09/10 06:37:06;;;;;;;;;5.75;3.25;;;;;18.25;59.56;100912.41;5077522;27;60675;-44
2022/09/10 06:39:32;;;;;;;;;6.75;3.00;;;;;18.26;59.32;100913.31;5081717;27;45407;-45
2022/09/10 06:41:57;;;;;;;;;2.00;2.00;;;;;18.28;59.30;100917.56;5089346;27;45539;-43
2022/09/10 06:44:22;;;;;;;;;6.00;2.50;;;;;18.30;59.47;100920.13;5076061;27;70508;-43
2022/09/10 06:46:48;;;;;;;;;1.00;1.00;;;;;18.31;59.42;100924.47;5081382;28;46460;-43
2022/09/10 06:49:14;;;;;;;;;7.00;2.50;;;;;18.33;59.64;100925.25;5045172;27;45573;-40
2022/09/10 06:51:39;;;;;;;;;5.50;3.00;;;;;18.36;59.34;100923.28;5080490;27;45465;-45
2022/09/10 06:54:06;;;;;;;;;4.00;3.00;;;;;18.37;59.64;100922.31;5070994;27;45476;-39
2022/09/10 06:56:32;;;;;;;;;4.00;3.00;;;;;18.41;59.48;100923.00;5081733;27;46653;-40
2022/09/10 06:58:57;;;;;;;;;2.75;1.50;;;;;18.44;59.03;100922.84;5063283;28;45381;-43
2022/09/10 07:01:24;;;;;;;;;3.50;2.00;;;;;18.48;59.51;100934.13;5077111;27;67940;-39
2022/09/10 07:04:00;;;;;;;;;2.75;2.00;;;;;18.51;59.07;100932.16;5054606;28;45689;-41
2022/09/10 07:06:26;;;;;;;;;5.75;2.00;;;;;18.53;59.26;100935.56;5046015;28;46188;-41
2022/09/10 07:08:56;;;;;;;;;2.50;2.50;;;;;18.54;59.27;100939.09;5074381;27;45337;-40
2022/09/10 07:11:22;;;;;;;;;3.50;2.00;;;;;18.51;58.96;100937.44;5080920;27;45921;-42
2022/09/10 07:13:51;;;;;;;;;6.00;3.00;;;;;18.50;59.31;100946.34;5080027;28;45213;-41
2022/09/10 07:16:21;;;;;;;;;2.00;1.50;;;;;18.51;59.02;100952.50;5055537;28;46242;-43
2022/09/10 07:18:48;;;;;;;;;5.00;1.50;;;;;18.50;59.16;100945.47;5058231;28;45264;-42
2022/09/10 07:21:14;;;;;;;;;1.25;1.25;;;;;18.50;59.19;100943.72;5071046;27;45938;-41
2022/09/10 07:23:40;;;;;;;;;2.00;2.00;;;;;18.50;59.12;100943.72;5081357;28;45423;-44
2022/09/10 07:26:08;;;;;;;;;4.00;2.00;;;;;18.51;59.02;100950.69;5054812;27;46698;-41
2022/09/10 07:28:35;;;;;;;;;2.50;1.00;;;;;18.54;59.20;100950.53;5060491;28;45530;-42
2022/09/10 07:31:14;;;;;;;;;2.50;1.75;;;;;18.53;59.20;100958.56;5078617;28;45388;-41
2022/09/10 07:33:40;;;;;;;;;6.25;2.00;;;;;18.53;59.19;100958.56;5075963;28;45186;-41
2022/09/10 07:36:07;;;;;;;;;1.00;1.00;;;;;18.54;58.87;100962.94;5074710;28;46137;-41
2022/09/10 07:38:32;;;;;;;;;2.75;2.00;;;;;18.55;58.96;100970.78;5076282;27;45517;-42
2022/09/10 07:41:01;;;;;;;;;4.00;1.00;;;;;18.52;59.01;100960.38;5060498;28;45484;-43
2022/09/10 07:43:26;;;;;;;;;2.25;1.00;;;;;18.51;59.18;100963.09;5068539;27;45487;-43
2022/09/10 07:45:51;;;;;;;;;2.00;2.00;;;;;18.53;59.29;100971.81;5073203;28;65165;-42
2022/09/10 07:48:17;;;;;;;;;3.00;2.25;;;;;18.56;59.34;100967.19;5080040;28;45422;-41
2022/09/10 07:50:42;;;;;;;;;1.50;1.50;;;;;18.60;59.16;100974.03;5034343;28;45297;-42
2022/09/10 07:53:08;;;;;;;;;2.75;2.00;;;;;18.64;58.97;100969.41;5077238;27;45441;-46
2022/09/10 07:55:33;;;;;;;;;4.00;2.00;;;;;18.65;59.21;100978.22;5074682;28;55907;-43
2022/09/10 07:57:58;;;;;;;;;4.50;2.00;;;;;18.66;59.03;100979.91;5076901;27;61029;-41
2022/09/10 08:00:24;;;;;;;;;9.75;3.75;;;;;18.68;58.95;100983.34;5075436;27;45288;-41
2022/09/10 08:02:49;;;;;;;;;10.00;6.25;;;;;18.70;59.05;100981.47;5074955;27;45371;-44
2022/09/10 08:05:15;;;;;;;;;3.00;3.00;;;;;18.72;59.14;100990.19;5069132;27;62551;-43
2022/09/10 08:07:41;;;;;;;;;2.25;2.25;;;;;18.77;59.04;100982.84;5073837;27;45681;-40
2022/09/10 08:10:08;;;;;;;;;2.75;2.00;;;;;18.81;59.18;100992.31;5074154;27;45312;-40
2022/09/10 08:12:38;;;;;;;;;2.00;2.00;;;;;18.86;59.01;100987.63;5078690;27;45480;-42
2022/09/10 08:15:05;;;;;;;;;7.00;5.75;;;;;18.87;58.84;100986.66;5076488;28;46253;-42
2022/09/10 08:17:30;;;;;;;;;5.75;4.00;;;;;18.90;59.22;100988.31;5071525;27;46912;-42
2022/09/10 08:19:57;;;;;;;;;2.50;2.50;;;;;18.95;58.87;100986.25;5071128;27;45395;-41
2022/09/10 08:22:23;;;;;;;;;7.75;3.00;;;;;18.98;58.75;100988.69;5075196;27;45366;-44
2022/09/10 08:24:48;;;;;;;;;3.75;2.25;;;;;19.02;58.75;100994.72;5069082;28;46104;-43
2022/09/10 08:27:15;;;;;;;;;1.75;1.50;;;;;19.02;58.29;100992.91;5074694;28;62646;-41
2022/09/10 08:29:41;;;;;;;;;2.00;2.00;;;;;19.03;58.68;100994.59;5075780;27;45551;-41
2022/09/10 08:32:06;;;;;;;;;2.00;1.75;;;;;19.08;58.55;100992.53;5054084;28;45596;-41
2022/09/10 08:34:33;;;;;;;;;2.00;2.00;;;;;19.12;58.23;100999.38;5049900;28;46210;-41
2022/09/10 08:36:58;;;;;;;;;4.50;1.00;;;;;19.14;58.35;101005.44;5071533;27;45340;-43
2022/09/10 08:39:24;;;;;;;;;4.75;2.00;;;;;19.13;58.33;101006.38;5056974;28;45316;-41
2022/09/10 08:41:56;;;;;;;;;1.00;1.00;;;;;19.12;58.48;101007.34;5080659;27;45378;-42
2022/09/10 08:44:37;;;;;;;;;5.50;2.00;;;;;19.15;58.18;101012.44;5074963;27;46953;-41
2022/09/10 08:47:28;;;;;;;;;2.00;2.00;;;;;19.17;58.13;101012.34;5069329;27;45374;-44
2022/09/10 08:49:57;;;;;;;;;3.00;3.00;;;;;19.18;58.33;101014.09;5072758;27;45366;-41
2022/09/10 08:52:39;;;;;;;;;4.75;3.00;;;;;19.18;58.13;101007.94;5059744;28;45550;-41
2022/09/10 08:55:17;;;;;;;;;7.75;5.00;;;;;19.19;58.31;101021.06;5058132;28;45384;-41
2022/09/10 08:57:46;;;;;;;;;3.75;3.00;;;;;19.23;58.10;101017.31;5068336;28;45494;-41
2022/09/10 09:00:18;;;;;;;;;3.75;3.75;;;;;19.25;58.13;101019.88;5051032;28;45446;-41
2022/09/10 09:03:20;;;;;;;;;6.75;3.00;;;;;19.27;58.09;101028.59;5073041;28;45485;-42
2022/09/10 09:06:05;;;;;;;;;2.00;2.00;;;;;19.25;58.14;101031.34;5064821;28;46340;-43
2022/09/10 09:08:34;;;;;;;;;3.25;3.25;;;;;19.24;57.89;101029.63;5052212;28;45458;-41
2022/09/10 09:11:19;;;;;;;;;4.75;4.50;;;;;19.22;58.14;101031.53;5075126;28;45513;-42
2022/09/10 09:14:03;;;;;;;;;12.00;11.00;;;;;19.21;58.30;101029.81;5078116;28;45356;-42
2022/09/10 09:16:31;;;;;;;;;7.00;4.75;;;;;19.24;58.44;101036.75;5080155;28;45404;-42
2022/09/10 09:19:13;;;;;;;;;3.00;3.00;;;;;19.25;58.22;101027.84;5048820;28;45814;-42
2022/09/10 09:21:38;;;;;;;;;7.75;4.00;;;;;19.28;58.48;101032.94;5051454;28;45380;-41
2022/09/10 09:24:33;;;;;;;;;2.00;2.00;;;;;19.27;58.68;101040.06;5077586;28;45347;-42
2022/09/10 09:27:08;;;;;;;;;2.00;2.00;;;;;19.29;58.42;101042.63;5064398;28;46085;-42
2022/09/10 09:29:42;;;;;;;;;2.00;2.00;;;;;19.29;58.96;101045.28;5052568;28;45399;-41
2022/09/10 09:32:10;;;;;;;;;4.50;3.00;;;;;19.31;59.21;101040.75;5054904;28;45468;-43
2022/09/10 09:34:36;;;;;;;;;2.00;2.00;;;;;19.32;59.57;101050.44;5061199;28;45590;-41
2022/09/10 09:37:04;;;;;;;;;2.75;2.00;;;;;19.31;59.48;101054.00;5071597;28;45691;-40
2022/09/10 09:39:32;;;;;;;;;3.50;3.00;;;;;19.29;59.93;101053.25;5059268;28;45379;-42
2022/09/10 09:42:06;;;;;;;;;3.50;3.00;;;;;19.27;59.68;101053.34;5061416;28;45619;-39
2022/09/10 09:44:39;;;;;;;;;3.00;2.00;;;;;19.23;59.48;101048.28;5061585;28;45612;-41
2022/09/10 09:47:04;;;;;;;;;3.50;2.75;;;;;19.21;59.46;101055.47;5065940;28;47291;-42
2022/09/10 09:49:29;;;;;;;;;3.75;2.00;;;;;19.20;59.63;101051.13;5060228;28;73302;-39
2022/09/10 09:51:57;;;;;;;;;3.50;1.50;;;;;19.19;59.85;101065.34;5079450;28;45432;-40
2022/09/10 09:54:26;;;;;;;;;3.00;2.00;;;;;19.20;60.01;101065.25;5077932;27;45328;-41
2022/09/10 09:56:53;;;;;;;;;2.75;2.25;;;;;19.20;60.10;101067.06;5061564;28;46366;-40
2022/09/10 09:59:28;;;;;;;;;3.75;3.00;;;;;19.19;59.67;101066.19;5060313;28;45772;-41
2022/09/10 10:01:58;;;;;;;;;6.50;3.00;;;;;19.20;60.06;101072.38;5079342;28;45194;-40
2022/09/10 10:04:29;;;;;;;;;5.00;3.25;;;;;19.19;59.95;101068.84;5073439;28;45497;-41
2022/09/10 10:06:57;;;;;;;;;5.50;4.50;;;;;19.15;59.80;101073.47;5057827;27;46248;-41
2022/09/10 10:09:30;;;;;;;;;3.25;3.25;;;;;19.12;59.76;101083.41;5073438;28;45343;-41
2022/09/10 10:12:13;;;;;;;;;6.00;4.50;;;;;19.09;60.17;101075.63;5068347;28;45496;-43
2022/09/10 10:14:40;;;;;;;;;7.25;5.00;;;;;19.08;60.05;101068.59;5051602;28;45443;-40
2022/09/10 10:17:28;;;;;;;;;4.25;4.25;;;;;19.06;60.08;101070.50;5050200;28;46109;-41
2022/09/10 10:20:05;;;;;;;;;6.50;6.00;;;;;19.13;59.96;101070.06;5073598;28;45350;-41
2022/09/10 10:22:31;;;;;;;;;6.00;5.75;;;;;19.13;60.03;101072.69;5086162;27;45472;-39
2022/09/10 10:24:58;;;;;;;;;6.00;6.00;;;;;19.16;59.92;101074.34;5053032;28;45573;-39
2022/09/10 10:27:28;;;;;;;;;5.50;4.00;;;;;19.18;60.04;101072.44;5076758;28;46253;-39
2022/09/10 10:29:57;;;;;;;;;5.50;4.00;;;;;19.20;60.03;101075.88;5077606;27;45339;-39
2022/09/10 10:32:46;;;;;;;;;3.25;3.00;;;;;19.24;60.16;101073.88;5055728;28;45482;-42
2022/09/10 10:35:50;;;;;;;;;7.50;5.00;;;;;19.28;60.08;101078.94;5048844;27;45735;-41
2022/09/10 10:38:30;;;;;;;;;10.25;6.50;;;;;19.25;60.05;101075.59;5054170;28;45705;-41
2022/09/10 10:40:59;;;;;;;;;15.25;11.00;;;;;19.19;60.10;101074.13;5059761;28;45382;-41
2022/09/10 10:43:24;;;;;;;;;9.50;8.00;;;;;19.15;60.63;101077.91;5072440;27;45300;-40
2022/09/10 10:45:54;;;;;;;;;7.75;6.00;;;;;19.12;61.00;101073.66;5069060;27;45244;-43
2022/09/10 10:48:32;;;;;;;;;6.75;5.25;;;;;19.12;61.20;101072.78;5052502;28;45531;-39
2022/09/10 10:51:24;;;;;;;;;12.50;10.00;;;;;19.12;60.95;101075.44;5071472;27;45700;-41
2022/09/10 10:53:58;;;;;;;;;34.25;27.50;;;;;19.12;61.19;101071.00;5077689;28;45426;-40
2022/09/10 10:56:58;;;;;;;;;12.00;7.00;;;;;19.16;61.26;101074.34;5078061;28;45578;-39
2022/09/10 10:59:25;;;;;;;;;4.50;4.25;;;;;19.17;60.99;101070.72;5012594;28;46672;-42
2022/09/10 11:01:55;;;;;;;;;8.25;5.00;;;;;19.19;61.24;101070.63;5067575;28;45501;-40
2022/09/10 11:04:26;;;;;;;;;10.50;7.25;;;;;19.20;61.64;101061.75;5060025;28;45350;-40
2022/09/10 11:07:15;;;;;;;;;7.50;6.25;;;;;19.21;61.33;101063.44;5060608;28;45431;-40
2022/09/10 11:09:57;;;;;;;;;5.75;5.75;;;;;19.26;61.03;101067.53;5062377;28;47226;-36
2022/09/10 11:12:30;;;;;;;;;11.00;6.50;;;;;19.32;61.43;101063.69;5081021;28;45732;-37
2022/09/10 11:15:09;;;;;;;;;5.00;4.25;;;;;19.39;61.42;101065.03;5062672;28;45256;-38
2022/09/10 11:17:40;;;;;;;;;5.00;4.75;;;;;19.49;61.22;101066.19;5078934;28;45325;-37
2022/09/10 11:20:17;;;;;;;;;4.25;3.50;;;;;19.59;60.96;101063.00;5055172;28;46221;-39
2022/09/10 11:23:05;;;;;;;;;14.75;6.00;;;;;19.69;61.13;101069.47;5077611;27;45881;-39
2022/09/10 11:25:39;;;;;;;;;3.75;3.50;;;;;19.77;60.55;101055.75;5052841;28;45328;-38
2022/09/10 11:28:14;;;;;;;;;7.50;4.50;;;;;19.81;60.38;101063.44;5060380;28;45500;-38
2022/09/10 11:30:43;;;;;;;;;10.25;7.25;;;;;19.87;60.61;101054.25;5058836;28;46125;-39
2022/09/10 11:33:30;;;;;;;;;6.00;4.75;;;;;19.94;60.52;101062.69;5063320;28;45442;-38
2022/09/10 11:36:08;;;;;;;;;12.75;8.00;;;;;19.98;60.03;101053.59;5061723;27;45291;-39